Terminal Aerodrome Forecast
Issued by NWS

Home | Current Version | Previous Version | Text Only | Print | Product List | Glossary Off
Versions: 1 2 3 4 5 6 7 8 9 10 11 12 13 14 15 16 17 18 19 20

000
FTUS43 KGRB 271100
TAFMTW
TAF
KMTW 271139Z 2712/2812 VRB03KT 1/2SM FG OVC003
     FM271400 09005KT 1SM -RA BR OVC004
     FM271500 10003KT 2SM -RA BR SCT005 OVC010
     FM271800 35007KT 1 1/2SM -RASN OVC012
     FM272000 29011G15KT 2SM -SN BKN015
     FM272100 29008KT P6SM SCT016 BKN070
     FM280000 28007KT P6SM SCT080=

USA.gov is the U.S. government's official web portal to all federal, state and local government web resources and services.